Terminal Aerodrome Forecast
Issued by NWS

Home | Current Version | Previous Version | Text Only | Print | Product List | Glossary On
Versions: 1 2 3 4 5 6 7 8 9 10 11 12 13 14
000
FTUS41 KLWX 201120
TAFMTN
TAF
KMTN 201120Z 2012/2112 29005KT P6SM FEW040 FEW250
     FM201500 31008G16KT P6SM SCT050 SCT200
     FM210000 31005KT P6SM SCT200
     FM210300 VRB03KT P6SM SCT200=

USA.gov is the U.S. government's official web portal to all federal, state and local government web resources and services.